Time;durP1;ratioP1;P1;durP2;ratioP2;P2;SDS_P1;SDS_P2;PMS_P1;PMS_P2;Temp;Humidity;BMP_temperature;BMP_pressure;BME280_temperature;BME280_humidity;BME280_pressure;Samples;Min_cycle;Max_cycle;Signal;HPM_P1;HPM_P2
2023/05/19 00:01:42;;;;;;;4.03;2.10;;;;;;;14.44;100.00;98125.59;5053563;28;20185;-62
2023/05/19 00:04:11;;;;;;;2.75;2.08;;;;;;;14.34;100.00;98096.16;5053540;28;20176;-63
2023/05/19 00:06:37;;;;;;;3.58;1.98;;;;;;;14.36;100.00;98092.44;5053470;28;20166;-63
2023/05/19 00:09:06;;;;;;;2.38;2.17;;;;;;;14.69;100.00;98138.13;5053442;28;20181;-62
2023/05/19 00:11:32;;;;;;;2.92;2.30;;;;;;;14.78;100.00;98160.72;5053343;28;20170;-62
2023/05/19 00:13:59;;;;;;;2.60;2.40;;;;;;;14.76;100.00;98173.88;5053306;28;20178;-63
2023/05/19 00:16:26;;;;;;;2.92;2.38;;;;;;;14.46;100.00;98121.91;5053264;28;20232;-63
2023/05/19 00:18:52;;;;;;;2.97;2.67;;;;;;;14.63;100.00;98155.09;5053150;28;20204;-63
2023/05/19 00:21:18;;;;;;;3.15;2.20;;;;;;;14.78;100.00;98186.75;5053201;28;20177;-63
2023/05/19 00:23:44;;;;;;;4.15;2.53;;;;;;;14.70;100.00;98165.78;5053129;28;20185;-63
2023/05/19 00:26:10;;;;;;;2.83;2.35;;;;;;;14.39;100.00;98109.56;5053365;28;20166;-63
2023/05/19 00:28:35;;;;;;;2.53;2.15;;;;;;;14.95;100.00;98183.47;5053030;28;20173;-63
2023/05/19 00:31:01;;;;;;;2.88;2.60;;;;;;;14.83;100.00;98145.50;5052986;28;20269;-63
2023/05/19 00:33:27;;;;;;;2.88;2.42;;;;;;;14.68;99.68;98106.03;5052933;28;20185;-63
2023/05/19 00:35:52;;;;;;;2.28;2.08;;;;;;;14.69;99.07;98094.66;5052890;28;20566;-63
2023/05/19 00:38:18;;;;;;;3.80;2.53;;;;;;;14.84;98.04;98115.88;5052903;28;20200;-63
2023/05/19 00:40:43;;;;;;;2.40;2.20;;;;;;;14.86;100.00;98140.00;5052823;28;20193;-62
2023/05/19 00:43:09;;;;;;;6.68;2.47;;;;;;;14.63;100.00;98130.84;5052814;28;20173;-63
2023/05/19 00:45:34;;;;;;;2.55;2.35;;;;;;;14.89;100.00;98152.75;5052812;28;20186;-63
2023/05/19 00:48:00;;;;;;;2.63;2.42;;;;;;;14.75;100.00;98163.59;5052652;28;20185;-63
2023/05/19 00:50:27;;;;;;;3.60;2.80;;;;;;;14.72;100.00;98164.69;5052678;28;20529;-63
2023/05/19 00:52:53;;;;;;;2.67;2.47;;;;;;;14.26;100.00;98120.25;5052694;28;20185;-63
2023/05/19 00:55:26;;;;;;;2.80;2.60;;;;;;;14.53;100.00;98143.03;5052601;28;20182;-62
2023/05/19 00:57:52;;;;;;;3.15;2.60;;;;;;;14.06;100.00;98081.31;5052523;28;20189;-63
2023/05/19 01:00:18;;;;;;;5.80;2.50;;;;;;;14.26;100.00;98127.22;5052694;28;20209;-63
2023/05/19 01:02:43;;;;;;;3.50;2.58;;;;;;;14.46;100.00;98166.16;5052445;28;20178;-63
2023/05/19 01:05:09;;;;;;;3.15;2.85;;;;;;;14.00;100.00;98092.25;5052489;28;20180;-63
2023/05/19 01:07:35;;;;;;;3.17;2.85;;;;;;;14.17;100.00;98125.41;5052372;28;20177;-63
2023/05/19 01:10:01;;;;;;;3.50;2.80;;;;;;;13.97;100.00;98092.50;5052408;28;20640;-62
2023/05/19 01:12:28;;;;;;;2.95;2.63;;;;;;;13.92;100.00;98092.91;5029888;28;20576;-62
2023/05/19 01:14:53;;;;;;;2.70;2.50;;;;;;;14.03;100.00;98130.97;5030057;28;20658;-63
2023/05/19 01:17:44;;;;;;;4.20;2.45;;;;;;;14.35;100.00;98171.50;5029910;28;20214;-63
2023/05/19 01:20:26;;;;;;;2.60;2.35;;;;;;;14.14;100.00;98146.47;5029986;28;20210;-63
2023/05/19 01:22:57;;;;;;;4.43;2.80;;;;;;;14.43;100.00;98176.03;5030031;28;20186;-63
2023/05/19 01:25:41;;;;;;;3.08;2.88;;;;;;;14.51;100.00;98181.38;5029904;28;20644;-62
2023/05/19 01:28:09;;;;;;;2.33;2.20;;;;;;;14.60;100.00;98170.16;5029899;28;20210;-63
2023/05/19 01:30:37;;;;;;;3.95;2.70;;;;;;;14.64;100.00;98171.56;5029836;28;20182;-63
2023/05/19 01:33:07;;;;;;;2.30;2.20;;;;;;;14.49;100.00;98159.88;5029842;28;20236;-63
2023/05/19 01:35:35;;;;;;;3.03;2.70;;;;;;;14.01;100.00;98093.88;5029836;28;20182;-63
2023/05/19 01:38:03;;;;;;;4.53;2.85;;;;;;;14.42;100.00;98158.78;5029663;28;20214;-63
2023/05/19 01:40:29;;;;;;;3.72;3.10;;;;;;;14.21;100.00;98122.44;5029777;28;20186;-63
2023/05/19 01:42:58;;;;;;;4.38;2.63;;;;;;;14.47;100.00;98154.78;5061054;28;20663;-63
2023/05/19 01:45:24;;;;;;;4.45;3.10;;;;;;;14.04;100.00;98076.22;5089786;28;20203;-63
2023/05/19 01:47:53;;;;;;;3.10;2.80;;;;;;;14.52;100.00;98142.19;5090088;28;20184;-63
2023/05/19 01:50:18;;;;;;;3.03;2.83;;;;;;;14.42;100.00;98130.13;5089794;28;20169;-63
2023/05/19 01:52:44;;;;;;;3.15;2.92;;;;;;;14.19;100.00;98079.28;5089705;28;20215;-63
2023/05/19 01:55:09;;;;;;;3.00;2.80;;;;;;;14.20;100.00;98073.97;5089734;28;20643;-63
2023/05/19 01:57:59;;;;;;;3.33;2.60;;;;;;;14.75;100.00;98194.88;5089653;28;20208;-63
2023/05/19 02:01:06;;;;;;;5.05;3.13;;;;;;;14.76;100.00;98173.88;5091353;28;20214;-63
2023/05/19 02:04:00;;;;;;;4.78;3.10;;;;;;;14.73;100.00;98173.31;5053602;28;20795;-63
2023/05/19 02:06:48;;;;;;;7.75;3.00;;;;;;;14.61;100.00;98177.00;5053394;28;20555;-62
2023/05/19 02:09:30;;;;;;;4.43;3.40;;;;;;;14.67;100.00;98182.50;5053337;28;20214;-63
2023/05/19 02:12:05;;;;;;;5.60;3.78;;;;;;;14.56;100.00;98169.63;5053298;28;20185;-62
2023/05/19 02:14:40;;;;;;;3.72;3.38;;;;;;;14.31;100.00;98143.28;5023627;28;20190;-63
2023/05/19 02:17:07;;;;;;;5.40;3.13;;;;;;;14.29;100.00;98129.56;5013461;28;20622;-63
2023/05/19 02:19:38;;;;;;;5.80;3.13;;;;;;;14.25;100.00;98104.78;5013449;28;20559;-63
2023/05/19 02:22:03;;;;;;;3.45;3.20;;;;;;;14.51;100.00;98150.97;5013402;28;20187;-63
2023/05/19 02:24:28;;;;;;;5.55;3.88;;;;;;;14.39;100.00;98157.25;5013358;28;20708;-63
2023/05/19 02:26:54;;;;;;;4.80;2.80;;;;;;;14.24;100.00;98179.41;5013552;28;20195;-63
2023/05/19 02:29:20;;;;;;;5.13;3.78;;;;;;;13.81;100.00;98107.78;5013187;28;20186;-63
2023/05/19 02:31:45;;;;;;;4.68;4.28;;;;;;;14.10;100.00;98190.16;5013259;28;20191;-63
2023/05/19 02:34:11;;;;;;;3.78;3.45;;;;;;;13.92;100.00;98202.16;5013146;28;20198;-63
2023/05/19 02:36:42;;;;;;;6.03;3.85;;;;;;;13.77;100.00;98177.44;5013076;28;20187;-63
2023/05/19 02:39:11;;;;;;;7.13;3.78;;;;;;;13.54;100.00;98151.75;5015352;28;20551;-63
2023/05/19 02:41:38;;;;;;;4.20;3.53;;;;;;;13.35;100.00;98104.88;5055118;28;20239;-63
2023/05/19 02:44:03;;;;;;;8.02;3.60;;;;;;;13.72;100.00;98192.59;5055084;28;20170;-63
2023/05/19 02:46:29;;;;;;;4.28;3.50;;;;;;;13.30;100.00;98117.44;5055014;28;20188;-63
2023/05/19 02:48:54;;;;;;;4.35;3.95;;;;;;;13.27;100.00;98102.09;5055018;28;20181;-63
2023/05/19 02:51:20;;;;;;;6.05;3.83;;;;;;;13.56;100.00;98148.06;5054961;28;20236;-63
2023/05/19 02:53:45;;;;;;;6.40;4.00;;;;;;;13.42;100.00;98121.59;5054646;28;20224;-63
2023/05/19 02:56:11;;;;;;;3.80;3.50;;;;;;;13.64;100.00;98165.63;5054831;28;20185;-63
2023/05/19 02:58:36;;;;;;;4.22;3.38;;;;;;;13.46;100.00;98136.78;5054492;28;20642;-62
2023/05/19 03:01:02;;;;;;;4.63;4.03;;;;;;;13.42;100.00;98132.00;5054760;28;20656;-63
2023/05/19 03:03:27;;;;;;;3.50;3.20;;;;;;;13.42;100.00;98132.00;5054700;28;20621;-63
2023/05/19 03:05:53;;;;;;;5.15;3.72;;;;;;;13.45;100.00;98148.16;5054672;28;20628;-63
2023/05/19 03:08:19;;;;;;;3.75;3.35;;;;;;;13.30;100.00;98104.44;5054639;28;20650;-63
2023/05/19 03:10:45;;;;;;;5.05;3.20;;;;;;;13.64;100.00;98157.81;5054189;28;20705;-63
2023/05/19 03:13:11;;;;;;;4.30;3.42;;;;;;;13.72;100.00;98161.38;5053699;28;20178;-63
2023/05/19 03:15:36;;;;;;;3.58;3.28;;;;;;;13.94;100.00;98189.03;5054467;28;20185;-63
2023/05/19 03:18:02;;;;;;;5.68;3.95;;;;;;;13.54;100.00;98125.75;5054055;28;20672;-63
2023/05/19 03:20:29;;;;;;;5.35;4.00;;;;;;;13.83;100.00;98165.69;5054353;28;20177;-63
2023/05/19 03:22:54;;;;;;;4.40;3.83;;;;;;;13.52;100.00;98127.63;5054286;28;20188;-63
2023/05/19 03:25:20;;;;;;;4.95;3.35;;;;;;;14.11;100.00;98210.03;5054299;28;20173;-63
2023/05/19 03:27:45;;;;;;;7.03;4.18;;;;;;;13.65;100.00;98130.88;5054197;28;20197;-63
2023/05/19 03:30:11;;;;;;;4.55;3.90;;;;;;;13.83;100.00;98173.50;5031761;28;20273;-63
2023/05/19 03:32:37;;;;;;;5.07;3.75;;;;;;;13.94;100.00;98165.59;5031864;28;20273;-62
2023/05/19 03:35:05;;;;;;;5.47;4.03;;;;;;;13.74;100.00;98130.06;5031752;28;20709;-62
2023/05/19 03:37:34;;;;;;;5.22;3.85;;;;;;;14.11;100.00;98209.22;5031651;28;20193;-62
2023/05/19 03:39:59;;;;;;;3.97;3.60;;;;;;;14.04;100.00;98192.47;5031691;28;20190;-62
2023/05/19 03:42:25;;;;;;;8.32;4.38;;;;;;;14.09;100.00;98205.91;5031708;28;20236;-62
2023/05/19 03:44:50;;;;;;;6.28;4.03;;;;;;;14.00;100.00;98202.31;5031658;28;20328;-63
2023/05/19 03:47:16;;;;;;;6.25;4.07;;;;;;;14.10;100.00;98215.34;5031558;28;20174;-62
2023/05/19 03:49:41;;;;;;;5.60;4.28;;;;;;;13.76;100.00;98164.59;5031835;28;20646;-63
2023/05/19 03:52:06;;;;;;;6.93;4.53;;;;;;;14.09;100.00;98205.91;5031490;28;20652;-63
2023/05/19 03:54:32;;;;;;;4.85;4.35;;;;;;;14.29;100.00;98213.66;5031441;28;20722;-63
2023/05/19 03:56:57;;;;;;;5.65;4.45;;;;;;;14.29;100.00;98184.22;5031312;28;20186;-63
2023/05/19 03:59:23;;;;;;;5.20;4.70;;;;;;;14.48;100.00;98223.31;5031235;28;20198;-63
2023/05/19 04:01:50;;;;;;;7.38;4.75;;;;;;;14.23;100.00;98188.16;5031272;28;20252;-63
2023/05/19 04:04:15;;;;;;;4.85;4.45;;;;;;;14.39;100.00;98217.13;5031244;28;20178;-62
2023/05/19 04:06:40;;;;;;;4.60;4.13;;;;;;;14.16;100.00;98196.59;5033821;28;20189;-63
2023/05/19 04:09:14;;;;;;;4.97;4.47;;;;;;;14.38;100.00;98228.50;5053473;28;20173;-63
2023/05/19 04:11:40;;;;;;;5.38;3.88;;;;;;;14.41;100.00;98230.03;5053362;28;20170;-63
2023/05/19 04:14:06;;;;;;;9.10;4.32;;;;;;;14.24;100.00;98186.41;5051102;28;20624;-63
2023/05/19 04:16:32;;;;;;;8.05;5.05;;;;;;;14.57;100.00;98231.16;5050944;28;20182;-63
2023/05/19 04:19:00;;;;;;;11.13;5.80;;;;;;;14.51;100.00;98216.06;5050786;28;20259;-63
2023/05/19 04:21:26;;;;;;;6.72;5.10;;;;;;;14.44;100.00;98216.72;5050828;28;20624;-63
2023/05/19 04:23:51;;;;;;;6.13;5.05;;;;;;;14.32;100.00;98183.94;5050447;28;20567;-63
2023/05/19 04:26:18;;;;;;;6.03;5.00;;;;;;;14.40;100.00;98194.53;5050771;28;20186;-63
2023/05/19 04:28:43;;;;;;;6.90;4.75;;;;;;;14.32;100.00;98178.75;5050635;28;20235;-63
2023/05/19 04:31:13;;;;;;;6.60;5.10;;;;;;;14.36;100.00;98173.13;5050678;28;20178;-63
2023/05/19 04:33:41;;;;;;;5.38;4.53;;;;;;;14.74;100.00;98221.84;5050616;28;20182;-63
2023/05/19 04:36:09;;;;;;;4.68;4.15;;;;;;;14.94;100.00;98226.13;5050590;28;20643;-63
2023/05/19 04:38:41;;;;;;;7.35;4.75;;;;;;;14.98;100.00;98232.72;5050444;28;20213;-62
2023/05/19 04:41:09;;;;;;;4.97;4.18;;;;;;;15.18;100.00;98250.81;5050545;28;20201;-63
2023/05/19 04:43:35;;;;;;;5.05;4.55;;;;;;;14.74;100.00;98172.34;5050458;28;20220;-63
2023/05/19 04:46:04;;;;;;;7.18;4.30;;;;;;;14.81;100.00;98178.69;5050332;28;20189;-62
2023/05/19 04:48:30;;;;;;;6.10;4.55;;;;;;;15.30;100.00;98239.31;5050245;28;20189;-62
2023/05/19 04:50:56;;;;;;;4.72;4.28;;;;;;;15.07;100.00;98170.19;5050817;28;20215;-63
2023/05/19 04:53:24;;;;;;;7.03;4.25;;;;;;;15.17;100.00;98175.38;5052650;28;20200;-63
2023/05/19 04:55:50;;;;;;;6.30;4.15;;;;;;;15.50;100.00;98219.25;5052579;28;20539;-62
2023/05/19 04:58:15;;;;;;;4.00;3.67;;;;;;;15.61;100.00;98226.91;5030023;28;20221;-63
2023/05/19 05:00:41;;;;;;;4.32;3.95;;;;;;;15.36;100.00;98175.38;5030016;28;20831;-62
2023/05/19 05:03:07;;;;;;;5.50;3.60;;;;;;;15.85;100.00;98251.56;5030220;28;20182;-63
2023/05/19 05:05:33;;;;;;;8.65;3.70;;;;;;;15.90;100.00;98244.16;5030176;28;20174;-63
2023/05/19 05:07:59;;;;;;;7.20;3.50;;;;;;;16.10;100.00;98256.16;5030370;28;20703;-63
2023/05/19 05:10:24;;;;;;;3.92;3.58;;;;;;;16.18;100.00;98268.50;5030102;28;20261;-63
2023/05/19 05:12:50;;;;;;;4.72;3.78;;;;;;;15.65;100.00;98178.72;5030272;28;20305;-63
2023/05/19 05:15:16;;;;;;;4.30;3.90;;;;;;;15.72;100.00;98177.19;5030186;28;20621;-63
2023/05/19 05:17:42;;;;;;;4.30;3.45;;;;;;;16.01;100.00;98204.84;5029842;28;20225;-63
2023/05/19 05:20:10;;;;;;;6.13;3.60;;;;;;;16.19;100.00;98226.59;5029986;28;20713;-63
2023/05/19 05:22:37;;;;;;;7.15;3.80;;;;;;;16.06;100.00;98192.19;5029945;28;20767;-63
2023/05/19 05:25:03;;;;;;;5.75;3.40;;;;;;;16.29;100.00;98231.78;5029905;28;20205;-63
2023/05/19 05:27:29;;;;;;;5.43;3.60;;;;;;;16.44;100.00;98238.19;5029840;28;20201;-63
2023/05/19 05:29:54;;;;;;;4.70;4.30;;;;;;;16.72;99.13;98266.75;5060913;28;20185;-62
2023/05/19 05:32:20;;;;;;;3.80;3.58;;;;;;;16.58;100.00;98245.53;5069770;28;20177;-62
2023/05/19 05:34:45;;;;;;;3.63;3.30;;;;;;;16.72;99.78;98247.63;5069018;28;20644;-63
2023/05/19 05:37:11;;;;;;;6.25;3.85;;;;;;;16.86;98.06;98257.59;5049520;28;20213;-62
2023/05/19 05:39:36;;;;;;;3.90;3.58;;;;;;;17.13;97.92;98300.19;5057311;28;20726;-63
2023/05/19 05:42:01;;;;;;;4.70;3.88;;;;;;;17.15;94.40;98300.84;5069648;28;20245;-63
2023/05/19 05:44:27;;;;;;;3.25;2.95;;;;;;;17.21;97.32;98302.06;5069660;28;20605;-63
2023/05/19 05:46:53;;;;;;;4.97;3.60;;;;;;;17.00;98.57;98259.69;5069279;28;20188;-62
2023/05/19 05:49:18;;;;;;;4.38;3.53;;;;;;;17.14;100.00;98304.44;5069504;28;20173;-62
2023/05/19 05:51:44;;;;;;;3.53;3.22;;;;;;;16.86;98.44;98274.09;5067394;28;20184;-62
2023/05/19 05:54:11;;;;;;;3.53;3.00;;;;;;;17.15;98.92;98313.13;5049530;28;20216;-62
2023/05/19 05:56:37;;;;;;;3.95;3.45;;;;;;;16.95;99.33;98283.69;5049520;28;20683;-63
2023/05/19 05:59:02;;;;;;;3.95;3.53;;;;;;;16.90;99.84;98300.78;5048999;28;20308;-62
2023/05/19 06:01:29;;;;;;;5.05;3.40;;;;;;;16.98;100.00;98309.53;5049220;28;20182;-63
2023/05/19 06:03:55;;;;;;;4.03;3.42;;;;;;;16.63;100.00;98238.09;5049067;28;20192;-62
2023/05/19 06:06:20;;;;;;;6.78;4.22;;;;;;;16.71;100.00;98240.78;5049466;28;20177;-63
2023/05/19 06:08:46;;;;;;;4.00;3.58;;;;;;;16.74;100.00;98253.56;5050900;28;20189;-62
2023/05/19 06:11:11;;;;;;;4.07;3.78;;;;;;;16.96;100.00;98274.06;5051407;28;20633;-63
2023/05/19 06:13:37;;;;;;;4.70;3.17;;;;;;;17.34;100.00;98331.28;5051423;28;20174;-63
2023/05/19 06:16:03;;;;;;;4.18;3.40;;;;;;;17.00;99.77;98257.91;5089460;28;20291;-63
2023/05/19 06:18:29;;;;;;;7.60;3.83;;;;;;;17.32;98.75;98286.97;5089184;28;20766;-63
2023/05/19 06:20:54;;;;;;;6.00;3.95;;;;;;;17.71;96.50;98348.50;5089311;28;20188;-62
2023/05/19 06:23:20;;;;;;;7.25;4.07;;;;;;;17.55;97.20;98335.28;5089457;28;20592;-63
2023/05/19 06:25:46;;;;;;;4.53;3.95;;;;;;;17.44;97.77;98316.38;5089420;28;20180;-63
2023/05/19 06:28:11;;;;;;;3.90;3.50;;;;;;;17.08;98.94;98265.03;5089364;28;20196;-63
2023/05/19 06:30:37;;;;;;;5.10;3.55;;;;;;;17.55;96.73;98334.47;5089410;28;20192;-63
2023/05/19 06:33:02;;;;;;;7.65;3.72;;;;;;;17.59;97.17;98343.66;5089401;28;20215;-63
2023/05/19 06:35:29;;;;;;;4.55;3.97;;;;;;;17.46;96.96;98310.03;5089400;28;20258;-63
2023/05/19 06:37:57;;;;;;;4.35;3.53;;;;;;;17.46;96.38;98270.78;5089253;28;20279;-63
2023/05/19 06:40:23;;;;;;;4.90;3.65;;;;;;;17.92;95.99;98324.63;5089266;28;20191;-62
2023/05/19 06:42:48;;;;;;;5.78;3.78;;;;;;;17.57;93.10;98272.34;5089254;28;20172;-63
2023/05/19 06:45:14;;;;;;;4.55;4.13;;;;;;;17.53;93.93;98273.59;5089211;28;20176;-63
2023/05/19 06:47:43;;;;;;;4.38;3.63;;;;;;;17.74;93.17;98313.38;5092706;28;20241;-63
2023/05/19 06:50:09;;;;;;;4.18;3.55;;;;;;;17.40;94.38;98274.03;5092876;28;20186;-63
2023/05/19 06:52:34;;;;;;;4.20;3.80;;;;;;;17.48;96.59;98305.47;5087569;28;20707;-63
2023/05/19 06:55:00;;;;;;;4.93;3.88;;;;;;;17.20;96.87;98269.88;5054897;28;20260;-63
2023/05/19 06:57:25;;;;;;;5.20;3.90;;;;;;;17.20;100.00;98326.59;5054775;28;20251;-62
2023/05/19 06:59:51;;;;;;;7.10;4.88;;;;;;;17.36;100.00;98355.50;5072094;28;20240;-63
2023/05/19 07:02:19;;;;;;;4.70;3.67;;;;;;;17.09;100.00;98350.31;5072094;28;20267;-63
2023/05/19 07:04:44;;;;;;;4.53;3.95;;;;;;;17.07;100.00;98337.41;5072289;28;20224;-63
2023/05/19 07:07:10;;;;;;;4.68;3.72;;;;;;;16.92;100.00;98333.63;5072287;28;20203;-63
2023/05/19 07:09:35;;;;;;;8.77;3.97;;;;;;;16.65;100.00;98277.94;5072052;28;20184;-63
2023/05/19 07:12:01;;;;;;;5.75;3.95;;;;;;;17.17;100.00;98332.09;5071792;28;20584;-63
2023/05/19 07:14:26;;;;;;;5.40;4.13;;;;;;;17.32;100.00;98333.25;5072098;28;20197;-61
2023/05/19 07:16:52;;;;;;;5.20;3.92;;;;;;;17.41;100.00;98311.44;5072005;28;20203;-62
2023/05/19 07:19:18;;;;;;;4.85;4.10;;;;;;;17.25;100.00;98272.06;5072060;28;20192;-63
2023/05/19 07:21:44;;;;;;;5.15;4.30;;;;;;;17.92;100.00;98348.19;5071943;28;20180;-63
2023/05/19 07:24:10;;;;;;;3.80;3.45;;;;;;;18.13;99.11;98340.81;5071919;28;20326;-63
2023/05/19 07:26:35;;;;;;;4.57;3.85;;;;;;;18.05;97.73;98310.16;5071878;28;20260;-63
2023/05/19 07:29:01;;;;;;;3.97;3.50;;;;;;;18.15;95.52;98304.81;5071682;28;20195;-61
2023/05/19 07:31:26;;;;;;;9.85;4.25;;;;;;;18.20;95.96;98289.47;5056628;28;20185;-63
2023/05/19 07:33:52;;;;;;;4.28;3.88;;;;;;;18.78;92.43;98361.19;5051825;28;20193;-63
2023/05/19 07:36:17;;;;;;;4.60;4.15;;;;;;;18.75;90.59;98316.94;5051755;28;20260;-63
2023/05/19 07:38:45;;;;;;;7.32;4.15;;;;;;;18.86;91.38;98321.91;5051600;28;20217;-62
2023/05/19 07:41:11;;;;;;;5.32;4.43;;;;;;;19.13;93.21;98350.50;5051638;28;20177;-62
2023/05/19 07:43:36;;;;;;;6.03;3.97;;;;;;;19.33;89.58;98362.41;5091587;28;20191;-62
2023/05/19 07:46:02;;;;;;;5.75;4.00;;;;;;;19.25;88.32;98365.00;5091719;28;20581;-62
2023/05/19 07:48:28;;;;;;;4.70;4.30;;;;;;;19.19;87.26;98360.38;5091710;28;20743;-62
2023/05/19 07:50:54;;;;;;;5.32;4.60;;;;;;;19.29;87.84;98361.09;5091634;28;20578;-62
2023/05/19 07:53:21;;;;;;;5.18;4.53;;;;;;;19.21;87.73;98340.06;5091529;28;20203;-62
2023/05/19 07:55:47;;;;;;;7.00;4.75;;;;;;;18.99;89.84;98317.00;5091613;28;20196;-61
2023/05/19 07:58:12;;;;;;;8.43;4.13;;;;;;;19.24;88.04;98369.41;5090744;28;20334;-62
2023/05/19 08:00:38;;;;;;;5.00;4.50;;;;;;;19.23;89.82;98366.97;5091385;28;20606;-62
2023/05/19 08:03:03;;;;;;;4.78;4.38;;;;;;;19.19;87.72;98334.13;5091398;28;20188;-61
2023/05/19 08:05:29;;;;;;;5.53;4.72;;;;;;;19.10;88.67;98304.44;5091287;28;20299;-61
2023/05/19 08:07:55;;;;;;;6.22;5.47;;;;;;;19.51;87.86;98366.53;5091007;28;20183;-62
2023/05/19 08:10:21;;;;;;;7.13;5.70;;;;;;;19.27;89.12;98310.56;5091294;28;20266;-62
2023/05/19 08:12:46;;;;;;;9.25;4.93;;;;;;;19.57;90.13;98359.81;5091189;28;20278;-62
2023/05/19 08:15:11;;;;;;;7.05;4.80;;;;;;;19.24;87.21;98352.88;5062318;28;20273;-62
2023/05/19 08:17:37;;;;;;;6.97;5.10;;;;;;;19.49;87.20;98389.50;5070592;28;20243;-62
2023/05/19 08:20:05;;;;;;;8.75;5.78;;;;;;;19.54;83.86;98391.66;5070882;28;20666;-62
2023/05/19 08:22:30;;;;;;;7.13;6.20;;;;;;;19.68;80.50;98385.75;5070796;28;20196;-62
2023/05/19 08:24:55;;;;;;;10.50;6.25;;;;;;;19.61;80.28;98350.63;5070511;28;20177;-62
2023/05/19 08:27:21;;;;;;;15.43;6.25;;;;;;;19.88;78.79;98373.97;5070634;28;20199;-62
2023/05/19 08:29:46;;;;;;;12.55;7.25;;;;;;;20.19;78.27;98398.63;5070581;28;20226;-62
2023/05/19 08:32:12;;;;;;;9.25;7.13;;;;;;;20.39;73.51;98418.31;5070612;28;20184;-62
2023/05/19 08:34:37;;;;;;;10.57;7.30;;;;;;;20.48;69.57;98404.16;5070396;28;20180;-62
2023/05/19 08:37:03;;;;;;;7.60;6.80;;;;;;;20.64;68.84;98404.13;5070349;28;20272;-62
2023/05/19 08:39:28;;;;;;;9.40;7.43;;;;;;;20.42;66.97;98341.75;5070440;28;20570;-62
2023/05/19 08:41:54;;;;;;;10.90;7.63;;;;;;;20.94;68.68;98413.94;5070473;28;20267;-62
2023/05/19 08:44:20;;;;;;;8.60;6.07;;;;;;;20.85;71.12;98367.56;5070320;28;20599;-62
2023/05/19 08:46:46;;;;;;;10.93;6.85;;;;;;;20.99;69.57;98394.00;5070359;28;20184;-62
2023/05/19 08:49:14;;;;;;;10.32;6.78;;;;;;;20.98;67.05;98386.31;5055336;28;20204;-62
2023/05/19 08:52:04;;;;;;;7.90;6.30;;;;;;;20.83;66.20;98341.47;5050374;28;20189;-62
2023/05/19 08:54:44;;;;;;;9.10;6.85;;;;;;;21.35;64.65;98402.25;5050318;28;20618;-62
2023/05/19 08:57:10;;;;;;;9.35;7.20;;;;;;;21.52;66.03;98402.00;5050205;28;20238;-62
2023/05/19 08:59:36;;;;;;;7.43;6.60;;;;;;;21.65;66.22;98398.78;5050066;28;20207;-62
2023/05/19 09:02:03;;;;;;;13.25;7.40;;;;;;;21.84;65.12;98415.00;5050144;28;20264;-62
2023/05/19 09:04:29;;;;;;;8.32;6.88;;;;;;;21.73;64.60;98375.06;5050147;28;20184;-62
2023/05/19 09:06:55;;;;;;;10.07;6.80;;;;;;;21.82;62.22;98376.63;5052394;28;20173;-62
2023/05/19 09:09:21;;;;;;;11.38;8.00;;;;;;;21.93;64.84;98395.50;5049699;28;20169;-62
2023/05/19 09:11:46;;;;;;;12.90;7.05;;;;;;;21.90;63.98;98381.84;5052373;28;20184;-63
2023/05/19 09:14:11;;;;;;;10.20;6.78;;;;;;;21.70;63.20;98342.00;5051263;28;20177;-62
2023/05/19 09:16:38;;;;;;;11.50;6.85;;;;;;;22.23;63.83;98422.75;5052352;28;20188;-62
2023/05/19 09:19:03;;;;;;;8.60;6.93;;;;;;;22.00;63.40;98382.44;5052197;28;20193;-63
2023/05/19 09:21:29;;;;;;;9.73;6.90;;;;;;;21.80;62.46;98352.28;5052277;28;20196;-63
2023/05/19 09:23:57;;;;;;;7.90;6.63;;;;;;;22.07;60.64;98392.09;5051918;28;20256;-62
2023/05/19 09:26:22;;;;;;;9.50;7.03;;;;;;;22.13;60.99;98422.16;5052197;28;20177;-62
2023/05/19 09:28:48;;;;;;;9.43;6.97;;;;;;;22.08;61.83;98398.19;5049636;28;20757;-63
2023/05/19 09:31:13;;;;;;;10.55;7.07;;;;;;;21.78;61.97;98349.00;5049727;28;20211;-63
2023/05/19 09:33:44;;;;;;;8.55;7.43;;;;;;;21.85;63.41;98350.75;5049568;28;20723;-63
2023/05/19 09:36:10;;;;;;;11.20;7.78;;;;;;;22.28;61.83;98408.06;5049826;28;20240;-63
2023/05/19 09:38:37;;;;;;;10.23;8.05;;;;;;;22.34;61.98;98403.88;5049604;28;20821;-63
2023/05/19 09:41:04;;;;;;;9.90;6.68;;;;;;;22.03;63.75;98350.47;5049701;28;20631;-63
2023/05/19 09:43:34;;;;;;;11.15;8.15;;;;;;;22.22;60.75;98387.69;5049624;28;20290;-63
2023/05/19 09:46:00;;;;;;;10.13;8.10;;;;;;;22.49;61.55;98417.97;5049620;28;20196;-63
2023/05/19 09:48:26;;;;;;;12.93;8.43;;;;;;;22.36;62.60;98372.88;5049526;28;20193;-63
2023/05/19 09:50:53;;;;;;;11.85;8.50;;;;;;;22.46;62.62;98391.94;5049637;28;20184;-63
2023/05/19 09:53:19;;;;;;;9.68;7.50;;;;;;;22.55;62.52;98390.88;5049486;28;20185;-63
2023/05/19 09:55:45;;;;;;;10.25;7.55;;;;;;;22.31;62.98;98352.31;5049529;28;20205;-63
2023/05/19 09:58:16;;;;;;;10.55;7.80;;;;;;;22.40;62.52;98353.06;5049349;28;20232;-63
2023/05/19 10:00:42;;;;;;;12.63;7.97;;;;;;;22.64;62.89;98395.03;5067009;28;20208;-63
2023/05/19 10:03:08;;;;;;;10.35;7.70;;;;;;;22.60;62.25;98394.59;5069511;28;20172;-63
2023/05/19 10:05:34;;;;;;;11.93;7.53;;;;;;;22.87;59.98;98416.88;5053547;28;20269;-63
2023/05/19 10:08:01;;;;;;;11.38;6.65;;;;;;;22.40;59.84;98332.81;5051792;28;20179;-63
2023/05/19 10:10:27;;;;;;;11.02;7.88;;;;;;;22.41;61.14;98330.97;5049226;28;20194;-63
2023/05/19 10:12:53;;;;;;;12.35;8.05;;;;;;;22.91;61.90;98407.63;5049406;28;20181;-63
2023/05/19 10:15:19;;;;;;;11.98;8.45;;;;;;;22.66;61.59;98362.22;5049413;28;20600;-63
2023/05/19 10:17:44;;;;;;;14.10;7.90;;;;;;;22.77;61.99;98377.59;5049276;28;20204;-63
2023/05/19 10:20:12;;;;;;;9.68;7.25;;;;;;;22.93;62.56;98387.97;5049317;28;20239;-63
2023/05/19 10:22:38;;;;;;;9.73;7.47;;;;;;;22.96;62.04;98361.19;5052925;28;20192;-63
2023/05/19 10:25:05;;;;;;;10.07;7.90;;;;;;;22.80;59.04;98331.53;5033042;28;20189;-63
2023/05/19 10:27:34;;;;;;;11.90;8.77;;;;;;;22.82;60.26;98351.47;5033054;28;20186;-63
2023/05/19 10:30:06;;;;;;;12.30;7.82;;;;;;;22.56;60.71;98347.66;5033073;28;20247;-63
2023/05/19 10:32:32;;;;;;;10.98;8.20;;;;;;;22.50;60.21;98337.84;5033096;28;20170;-63
2023/05/19 10:35:04;;;;;;;11.20;7.22;;;;;;;22.69;60.57;98382.97;5032912;28;20640;-63
2023/05/19 10:37:48;;;;;;;10.48;7.50;;;;;;;22.68;61.14;98397.13;5032887;28;20216;-63
2023/05/19 10:40:39;;;;;;;11.02;8.30;;;;;;;22.51;61.94;98403.59;5032871;28;20181;-63
2023/05/19 10:43:11;;;;;;;8.40;7.10;;;;;;;22.57;62.00;98431.06;5026301;28;20347;-63
2023/05/19 10:45:57;;;;;;;9.23;7.10;;;;;;;22.44;60.20;98430.84;5032785;28;20257;-63
2023/05/19 10:48:22;;;;;;;10.00;7.47;;;;;;;21.93;61.08;98371.78;5046477;28;20208;-63
2023/05/19 10:50:52;;;;;;;11.15;6.95;;;;;;;22.19;66.94;98440.75;5052590;28;20222;-63
2023/05/19 10:53:20;;;;;;;9.98;6.80;;;;;;;22.03;70.44;98446.13;5052666;28;20169;-63
2023/05/19 10:55:48;;;;;;;8.07;6.88;;;;;;;21.90;69.44;98450.34;5052444;28;20197;-63
2023/05/19 10:58:14;;;;;;;13.38;7.88;;;;;;;21.01;80.94;98401.75;5052416;28;20254;-63
2023/05/19 11:00:43;;;;;;;14.50;8.20;;;;;;;20.42;98.57;98446.88;5052330;28;20300;-63
2023/05/19 11:03:12;;;;;;;10.10;7.40;;;;;;;20.30;93.65;98437.69;5054000;28;20188;-63
2023/05/19 11:05:38;;;;;;;10.20;8.07;;;;;;;19.81;100.00;98441.25;5054754;28;20183;-62
2023/05/19 11:08:06;;;;;;;9.25;8.02;;;;;;;19.36;100.00;98409.31;5054700;28;20173;-62
2023/05/19 11:10:32;;;;;;;10.35;7.85;;;;;;;18.87;99.60;98386.47;5054621;28;20631;-62
2023/05/19 11:12:58;;;;;;;9.35;6.88;;;;;;;18.39;100.00;98328.56;5054888;28;20253;-63
2023/05/19 11:15:27;;;;;;;11.18;7.95;;;;;;;18.35;100.00;98385.69;5054252;28;20169;-62
2023/05/19 11:17:53;;;;;;;10.35;7.72;;;;;;;18.14;100.00;98381.75;5054141;28;20591;-63
2023/05/19 11:20:26;;;;;;;9.77;8.43;;;;;;;17.99;100.00;98372.78;5054470;28;20177;-63
2023/05/19 11:23:08;;;;;;;11.10;7.78;;;;;;;17.40;100.00;98338.56;5054695;28;20176;-63
2023/05/19 11:26:00;;;;;;;12.60;7.82;;;;;;;17.44;100.00;98381.78;5054319;28;20197;-63
2023/05/19 11:28:28;;;;;;;13.25;9.20;;;;;;;17.24;100.00;98343.59;5053764;28;20254;-63